sensor_id;sensor_type;location;lat;lon;timestamp;pressure;altitude;pressure_sealevel;temperature;humidity
55604;BME280;41468;48.838;9.330;2023-02-28T00:01:14;99032.91;;;-0.33;57.15
55604;BME280;41468;48.838;9.330;2023-02-28T00:03:41;99035.31;;;-0.32;56.84
55604;BME280;41468;48.838;9.330;2023-02-28T00:06:09;99034.03;;;-0.39;57.13
55604;BME280;41468;48.838;9.330;2023-02-28T00:08:36;99033.78;;;-0.43;57.35
55604;BME280;41468;48.838;9.330;2023-02-28T00:11:08;99034.09;;;-0.55;57.64
55604;BME280;41468;48.838;9.330;2023-02-28T00:13:36;99038.91;;;-0.52;57.80
55604;BME280;41468;48.838;9.330;2023-02-28T00:16:09;99027.13;;;-0.51;57.47
55604;BME280;41468;48.838;9.330;2023-02-28T00:18:36;99028.72;;;-0.55;57.74
55604;BME280;41468;48.838;9.330;2023-02-28T00:21:03;99026.38;;;-0.61;58.63
55604;BME280;41468;48.838;9.330;2023-02-28T00:23:30;99021.25;;;-0.58;57.83
55604;BME280;41468;48.838;9.330;2023-02-28T00:26:02;99026.03;;;-0.50;58.43
55604;BME280;41468;48.838;9.330;2023-02-28T00:28:29;99027.63;;;-0.49;58.40
55604;BME280;41468;48.838;9.330;2023-02-28T00:31:00;99029.81;;;-0.51;58.22
55604;BME280;41468;48.838;9.330;2023-02-28T00:33:28;99026.84;;;-0.54;58.78
55604;BME280;41468;48.838;9.330;2023-02-28T00:36:06;99026.03;;;-0.50;58.87
55604;BME280;41468;48.838;9.330;2023-02-28T00:38:33;99029.53;;;-0.54;58.92
55604;BME280;41468;48.838;9.330;2023-02-28T00:41:00;99021.66;;;-0.40;58.38
55604;BME280;41468;48.838;9.330;2023-02-28T00:43:32;99016.41;;;-0.56;58.98
55604;BME280;41468;48.838;9.330;2023-02-28T00:46:10;99022.84;;;-0.57;59.17
55604;BME280;41468;48.838;9.330;2023-02-28T00:48:36;99025.50;;;-0.52;59.06
55604;BME280;41468;48.838;9.330;2023-02-28T00:51:04;99026.84;;;-0.54;59.38
55604;BME280;41468;48.838;9.330;2023-02-28T00:53:30;99026.28;;;-0.51;59.68
55604;BME280;41468;48.838;9.330;2023-02-28T00:55:58;99017.78;;;-0.63;59.75
55604;BME280;41468;48.838;9.330;2023-02-28T00:58:30;99028.78;;;-0.65;59.96
55604;BME280;41468;48.838;9.330;2023-02-28T01:00:56;99023.09;;;-0.53;59.98
55604;BME280;41468;48.838;9.330;2023-02-28T01:03:23;99027.13;;;-0.51;59.87
55604;BME280;41468;48.838;9.330;2023-02-28T01:05:57;99026.06;;;-0.55;59.95
55604;BME280;41468;48.838;9.330;2023-02-28T01:08:24;99022.53;;;-0.50;59.75
55604;BME280;41468;48.838;9.330;2023-02-28T01:10:52;99022.81;;;-0.52;60.76
55604;BME280;41468;48.838;9.330;2023-02-28T01:13:19;99020.97;;;-0.56;60.66
55604;BME280;41468;48.838;9.330;2023-02-28T01:15:50;99019.88;;;-0.55;60.31
55604;BME280;41468;48.838;9.330;2023-02-28T01:18:18;99019.91;;;-0.60;61.02
55604;BME280;41468;48.838;9.330;2023-02-28T01:20:45;99015.09;;;-0.58;60.83
55604;BME280;41468;48.838;9.330;2023-02-28T01:23:12;99011.06;;;-0.61;61.49
55604;BME280;41468;48.838;9.330;2023-02-28T01:25:39;99008.16;;;-0.64;61.05
55604;BME280;41468;48.838;9.330;2023-02-28T01:28:06;99011.56;;;-0.54;61.26
55604;BME280;41468;48.838;9.330;2023-02-28T01:30:32;99012.66;;;-0.60;61.92
55604;BME280;41468;48.838;9.330;2023-02-28T01:32:59;99021.25;;;-0.58;61.78
55604;BME280;41468;48.838;9.330;2023-02-28T01:35:26;99020.44;;;-0.58;61.78
55604;BME280;41468;48.838;9.330;2023-02-28T01:37:52;99016.66;;;-0.57;61.93
55604;BME280;41468;48.838;9.330;2023-02-28T01:40:19;99014.53;;;-0.55;61.97
55604;BME280;41468;48.838;9.330;2023-02-28T01:42:46;99011.31;;;-0.57;61.85
55604;BME280;41468;48.838;9.330;2023-02-28T01:47:50;99007.09;;;-0.69;62.84
55604;BME280;41468;48.838;9.330;2023-02-28T01:50:21;99010.03;;;-0.70;62.94
55604;BME280;41468;48.838;9.330;2023-02-28T01:52:49;99015.91;;;-0.63;62.68
55604;BME280;41468;48.838;9.330;2023-02-28T01:55:18;99007.25;;;-0.50;62.47
55604;BME280;41468;48.838;9.330;2023-02-28T01:57:49;99010.50;;;-0.58;62.71
55604;BME280;41468;48.838;9.330;2023-02-28T02:00:21;99003.03;;;-0.61;62.95
55604;BME280;41468;48.838;9.330;2023-02-28T02:02:51;99004.03;;;-0.52;62.94
55604;BME280;41468;48.838;9.330;2023-02-28T02:05:22;99012.75;;;-0.75;63.46
55604;BME280;41468;48.838;9.330;2023-02-28T02:07:53;99000.91;;;-0.64;63.72
55604;BME280;41468;48.838;9.330;2023-02-28T02:10:29;98991.22;;;-0.65;63.69
55604;BME280;41468;48.838;9.330;2023-02-28T02:24:49;98981.88;;;-0.73;65.54
55604;BME280;41468;48.838;9.330;2023-02-28T02:33:02;98973.50;;;-0.61;65.59
55604;BME280;41468;48.838;9.330;2023-02-28T02:35:47;98975.13;;;-0.65;65.49
55604;BME280;41468;48.838;9.330;2023-02-28T02:38:32;98974.34;;;-0.65;65.97
55604;BME280;41468;48.838;9.330;2023-02-28T02:41:13;98970.34;;;-0.68;66.01
55604;BME280;41468;48.838;9.330;2023-02-28T02:44:01;98971.03;;;-0.52;65.64
55604;BME280;41468;48.838;9.330;2023-02-28T02:46:33;98974.03;;;-0.54;65.29
55604;BME280;41468;48.838;9.330;2023-02-28T02:49:05;98976.69;;;-0.54;65.57
55604;BME280;41468;48.838;9.330;2023-02-28T02:51:33;98980.16;;;-0.48;65.88
55604;BME280;41468;48.838;9.330;2023-02-28T02:54:08;98972.72;;;-0.61;66.26
55604;BME280;41468;48.838;9.330;2023-02-28T02:56:38;98979.13;;;-0.57;66.16
55604;BME280;41468;48.838;9.330;2023-02-28T02:59:09;98969.78;;;-0.65;66.88
55604;BME280;41468;48.838;9.330;2023-02-28T03:01:37;98966.28;;;-0.60;66.90
55604;BME280;41468;48.838;9.330;2023-02-28T03:04:10;98970.88;;;-0.66;67.11
55604;BME280;41468;48.838;9.330;2023-02-28T03:06:39;98970.28;;;-0.58;67.01
55604;BME280;41468;48.838;9.330;2023-02-28T03:09:16;98973.78;;;-0.62;67.25
55604;BME280;41468;48.838;9.330;2023-02-28T03:11:42;98966.44;;;-0.47;66.99
55604;BME280;41468;48.838;9.330;2023-02-28T03:25:01;98981.75;;;-0.47;67.07
55604;BME280;41468;48.838;9.330;2023-02-28T03:30:24;98979.31;;;-0.49;66.94
55604;BME280;41468;48.838;9.330;2023-02-28T03:35:30;98982.84;;;-0.48;67.64
55604;BME280;41468;48.838;9.330;2023-02-28T03:38:08;98976.94;;;-0.50;67.15
55604;BME280;41468;48.838;9.330;2023-02-28T03:40:37;98969.69;;;-0.50;67.26
55604;BME280;41468;48.838;9.330;2023-02-28T03:43:10;98970.84;;;-0.61;67.43
55604;BME280;41468;48.838;9.330;2023-02-28T03:45:39;98974.88;;;-0.63;67.64
55604;BME280;41468;48.838;9.330;2023-02-28T03:48:21;98974.25;;;-0.50;67.96
55604;BME280;41468;48.838;9.330;2023-02-28T03:50:53;98971.28;;;-0.49;67.78
55604;BME280;41468;48.838;9.330;2023-02-28T03:53:36;98970.22;;;-0.48;67.23
55604;BME280;41468;48.838;9.330;2023-02-28T03:56:11;98976.41;;;-0.52;67.42
55604;BME280;41468;48.838;9.330;2023-02-28T03:58:51;98973.44;;;-0.46;67.36
55604;BME280;41468;48.838;9.330;2023-02-28T04:01:24;98978.69;;;-0.35;67.48
55604;BME280;41468;48.838;9.330;2023-02-28T04:03:54;98978.50;;;-0.44;67.26
55604;BME280;41468;48.838;9.330;2023-02-28T04:06:22;98972.88;;;-0.42;67.08
55604;BME280;41468;48.838;9.330;2023-02-28T04:08:50;98978.78;;;-0.46;67.42
55604;BME280;41468;48.838;9.330;2023-02-28T04:11:30;98979.28;;;-0.43;67.24
55604;BME280;41468;48.838;9.330;2023-02-28T04:13:58;98985.75;;;-0.45;67.92
55604;BME280;41468;48.838;9.330;2023-02-28T04:16:25;98979.22;;;-0.33;67.39
55604;BME280;41468;48.838;9.330;2023-02-28T04:19:05;98982.81;;;-0.43;68.13
55604;BME280;41468;48.838;9.330;2023-02-28T04:21:37;98986.22;;;-0.32;67.87
55604;BME280;41468;48.838;9.330;2023-02-28T04:24:09;98985.16;;;-0.36;67.76
55604;BME280;41468;48.838;9.330;2023-02-28T04:26:42;98990.50;;;-0.31;67.58
55604;BME280;41468;48.838;9.330;2023-02-28T04:29:12;98988.84;;;-0.27;67.42
55604;BME280;41468;48.838;9.330;2023-02-28T04:31:39;98988.34;;;-0.29;67.81
55604;BME280;41468;48.838;9.330;2023-02-28T04:34:06;98983.31;;;-0.41;68.40
55604;BME280;41468;48.838;9.330;2023-02-28T04:36:33;98980.34;;;-0.39;68.35
55604;BME280;41468;48.838;9.330;2023-02-28T04:38:59;98984.06;;;-0.35;67.92
55604;BME280;41468;48.838;9.330;2023-02-28T04:41:37;98982.13;;;-0.25;67.91
55604;BME280;41468;48.838;9.330;2023-02-28T04:44:04;98974.88;;;-0.24;67.88
55604;BME280;41468;48.838;9.330;2023-02-28T04:46:30;98984.94;;;-0.40;68.24
55604;BME280;41468;48.838;9.330;2023-02-28T04:48:57;98976.31;;;-0.37;68.32
55604;BME280;41468;48.838;9.330;2023-02-28T04:51:24;98981.38;;;-0.35;68.36
55604;BME280;41468;48.838;9.330;2023-02-28T04:53:51;98977.94;;;-0.41;68.67
55604;BME280;41468;48.838;9.330;2023-02-28T04:56:18;98991.53;;;-0.27;68.20
55604;BME280;41468;48.838;9.330;2023-02-28T04:58:45;98974.91;;;-0.29;68.50
55604;BME280;41468;48.838;9.330;2023-02-28T05:01:26;98984.00;;;-0.25;68.34
55604;BME280;41468;48.838;9.330;2023-02-28T05:03:55;98978.41;;;-0.29;68.46
55604;BME280;41468;48.838;9.330;2023-02-28T05:06:23;98986.13;;;-0.22;68.29
55604;BME280;41468;48.838;9.330;2023-02-28T05:08:51;98992.66;;;-0.33;68.34
55604;BME280;41468;48.838;9.330;2023-02-28T05:11:24;98986.75;;;-0.35;68.64
55604;BME280;41468;48.838;9.330;2023-02-28T05:13:52;98992.63;;;-0.28;68.77
55604;BME280;41468;48.838;9.330;2023-02-28T05:16:20;98987.25;;;-0.28;68.60
55604;BME280;41468;48.838;9.330;2023-02-28T05:18:58;98991.03;;;-0.29;68.76
55604;BME280;41468;48.838;9.330;2023-02-28T05:21:32;98983.16;;;-0.20;69.11
55604;BME280;41468;48.838;9.330;2023-02-28T05:24:01;98984.53;;;-0.23;68.73
55604;BME280;41468;48.838;9.330;2023-02-28T05:26:29;98983.81;;;-0.34;69.34
55604;BME280;41468;48.838;9.330;2023-02-28T05:28:56;98977.47;;;-0.14;68.89
55604;BME280;41468;48.838;9.330;2023-02-28T05:31:23;98979.41;;;-0.19;69.04
55604;BME280;41468;48.838;9.330;2023-02-28T05:33:50;98976.22;;;-0.21;69.05
55604;BME280;41468;48.838;9.330;2023-02-28T05:36:17;98975.31;;;-0.12;68.43
55604;BME280;41468;48.838;9.330;2023-02-28T05:38:46;98991.75;;;-0.18;68.56
55604;BME280;41468;48.838;9.330;2023-02-28T05:41:13;98998.22;;;-0.25;68.58
55604;BME280;41468;48.838;9.330;2023-02-28T05:43:40;98992.00;;;-0.20;68.63
55604;BME280;41468;48.838;9.330;2023-02-28T05:46:08;98992.31;;;-0.21;69.06
55604;BME280;41468;48.838;9.330;2023-02-28T05:48:37;98988.84;;;-0.27;69.44
55604;BME280;41468;48.838;9.330;2023-02-28T05:51:05;98986.66;;;-0.20;69.62
55604;BME280;41468;48.838;9.330;2023-02-28T05:53:43;98994.69;;;-0.20;68.98
55604;BME280;41468;48.838;9.330;2023-02-28T05:56:10;99006.00;;;-0.23;68.90
55604;BME280;41468;48.838;9.330;2023-02-28T05:58:36;99007.56;;;-0.17;69.02
55604;BME280;41468;48.838;9.330;2023-02-28T06:01:31;99007.28;;;-0.15;68.93
55604;BME280;41468;48.838;9.330;2023-02-28T06:03:59;99014.97;;;-0.04;68.48
55604;BME280;41468;48.838;9.330;2023-02-28T06:06:26;99001.22;;;0.08;69.69
55604;BME280;41468;48.838;9.330;2023-02-28T06:08:53;99012.72;;;0.14;68.07
55604;BME280;41468;48.838;9.330;2023-02-28T06:11:20;99010.63;;;0.06;67.58
55604;BME280;41468;48.838;9.330;2023-02-28T06:13:47;99005.75;;;0.08;67.69
55604;BME280;41468;48.838;9.330;2023-02-28T06:16:14;99019.72;;;0.10;67.26
55604;BME280;41468;48.838;9.330;2023-02-28T06:18:40;99016.41;;;0.18;67.34
55604;BME280;41468;48.838;9.330;2023-02-28T06:21:07;99012.25;;;0.02;67.98
55604;BME280;41468;48.838;9.330;2023-02-28T06:23:35;99014.06;;;0.11;67.56
55604;BME280;41468;48.838;9.330;2023-02-28T06:26:02;99018.56;;;0.16;67.07
55604;BME280;41468;48.838;9.330;2023-02-28T06:28:28;99023.41;;;0.19;66.69
55604;BME280;41468;48.838;9.330;2023-02-28T06:30:55;99026.03;;;0.24;66.48
55604;BME280;41468;48.838;9.330;2023-02-28T06:33:34;99027.72;;;0.15;67.19
55604;BME280;41468;48.838;9.330;2023-02-28T06:36:13;99030.38;;;0.20;67.03
55604;BME280;41468;48.838;9.330;2023-02-28T06:38:40;99028.78;;;0.19;66.26
55604;BME280;41468;48.838;9.330;2023-02-28T06:41:18;99033.59;;;0.22;65.92
55604;BME280;41468;48.838;9.330;2023-02-28T06:43:45;99032.00;;;0.16;66.24
55604;BME280;41468;48.838;9.330;2023-02-28T06:46:13;99028.28;;;0.12;66.51
55604;BME280;41468;48.838;9.330;2023-02-28T06:48:42;99031.16;;;0.20;66.24
55604;BME280;41468;48.838;9.330;2023-02-28T06:51:14;99038.75;;;0.13;66.52
55604;BME280;41468;48.838;9.330;2023-02-28T06:53:41;99043.75;;;0.25;65.57
55604;BME280;41468;48.838;9.330;2023-02-28T06:56:13;99043.56;;;0.46;65.57
55604;BME280;41468;48.838;9.330;2023-02-28T06:58:41;99048.22;;;0.35;65.60
55604;BME280;41468;48.838;9.330;2023-02-28T07:01:08;99043.44;;;0.61;65.01
55604;BME280;41468;48.838;9.330;2023-02-28T07:03:39;99053.25;;;0.47;65.58
55604;BME280;41468;48.838;9.330;2023-02-28T07:06:06;99055.38;;;0.50;65.10
55604;BME280;41468;48.838;9.330;2023-02-28T07:08:33;99049.81;;;0.41;64.58
55604;BME280;41468;48.838;9.330;2023-02-28T07:11:01;99050.16;;;0.29;65.29
55604;BME280;41468;48.838;9.330;2023-02-28T07:13:28;99050.31;;;0.43;65.30
55604;BME280;41468;48.838;9.330;2023-02-28T07:15:58;99048.03;;;0.26;64.81
55604;BME280;41468;48.838;9.330;2023-02-28T07:18:25;99058.13;;;0.39;64.37
55604;BME280;41468;48.838;9.330;2023-02-28T07:20:52;99054.31;;;0.46;64.05
55604;BME280;41468;48.838;9.330;2023-02-28T07:23:19;99047.97;;;0.36;63.97
55604;BME280;41468;48.838;9.330;2023-02-28T07:25:45;99063.00;;;0.37;64.71
55604;BME280;41468;48.838;9.330;2023-02-28T07:28:13;99063.69;;;0.48;64.39
55604;BME280;41468;48.838;9.330;2023-02-28T07:30:40;99059.41;;;0.47;64.17
55604;BME280;41468;48.838;9.330;2023-02-28T07:33:13;99054.22;;;0.56;64.25
55604;BME280;41468;48.838;9.330;2023-02-28T07:35:44;99064.88;;;0.66;63.52
55604;BME280;41468;48.838;9.330;2023-02-28T07:38:11;99062.53;;;0.59;63.82
55604;BME280;41468;48.838;9.330;2023-02-28T07:40:39;99066.34;;;0.53;63.43
55604;BME280;41468;48.838;9.330;2023-02-28T07:43:06;99060.88;;;0.63;63.42
55604;BME280;41468;48.838;9.330;2023-02-28T07:45:33;99063.75;;;0.72;63.04
55604;BME280;41468;48.838;9.330;2023-02-28T07:48:01;99072.63;;;0.73;63.03
55604;BME280;41468;48.838;9.330;2023-02-28T07:50:27;99076.91;;;0.74;63.48
55604;BME280;41468;48.838;9.330;2023-02-28T07:53:00;99074.13;;;0.55;63.76
55604;BME280;41468;48.838;9.330;2023-02-28T07:55:26;99069.59;;;0.50;63.60
55604;BME280;41468;48.838;9.330;2023-02-28T07:57:53;99068.16;;;0.63;64.18
55604;BME280;41468;48.838;9.330;2023-02-28T08:00:20;99067.09;;;0.59;63.65
55604;BME280;41468;48.838;9.330;2023-02-28T08:02:48;99072.69;;;0.68;63.29
55604;BME280;41468;48.838;9.330;2023-02-28T08:05:14;99066.59;;;0.57;63.46
55604;BME280;41468;48.838;9.330;2023-02-28T08:07:41;99074.84;;;0.65;62.70
55604;BME280;41468;48.838;9.330;2023-02-28T08:10:08;99072.84;;;0.47;63.25
55604;BME280;41468;48.838;9.330;2023-02-28T08:12:36;99077.44;;;0.47;63.50
55604;BME280;41468;48.838;9.330;2023-02-28T08:15:03;99074.50;;;0.72;63.17
55604;BME280;41468;48.838;9.330;2023-02-28T08:17:29;99071.84;;;0.67;63.01
55604;BME280;41468;48.838;9.330;2023-02-28T08:19:58;99076.78;;;0.60;62.95
55604;BME280;41468;48.838;9.330;2023-02-28T08:22:25;99072.38;;;0.69;62.85
55604;BME280;41468;48.838;9.330;2023-02-28T08:24:52;99073.59;;;0.82;63.02
55604;BME280;41468;48.838;9.330;2023-02-28T08:27:18;99074.09;;;0.89;62.80
55604;BME280;41468;48.838;9.330;2023-02-28T08:29:45;99080.16;;;1.00;62.70
55604;BME280;41468;48.838;9.330;2023-02-28T08:32:12;99090.09;;;0.99;62.10
55604;BME280;41468;48.838;9.330;2023-02-28T08:34:54;99082.84;;;1.00;62.03
55604;BME280;41468;48.838;9.330;2023-02-28T08:37:21;99092.97;;;1.08;62.41
55604;BME280;41468;48.838;9.330;2023-02-28T08:39:47;99079.69;;;1.17;62.04
55604;BME280;41468;48.838;9.330;2023-02-28T08:42:14;99086.38;;;1.19;61.64
55604;BME280;41468;48.838;9.330;2023-02-28T08:44:41;99081.84;;;0.91;62.30
55604;BME280;41468;48.838;9.330;2023-02-28T08:47:07;99083.63;;;1.00;61.48
55604;BME280;41468;48.838;9.330;2023-02-28T08:49:34;99084.69;;;0.99;61.41
55604;BME280;41468;48.838;9.330;2023-02-28T08:52:00;99078.44;;;1.09;61.52
55604;BME280;41468;48.838;9.330;2023-02-28T08:54:32;99087.59;;;1.08;60.14
55604;BME280;41468;48.838;9.330;2023-02-28T08:57:00;99095.13;;;1.06;60.92
55604;BME280;41468;48.838;9.330;2023-02-28T08:59:26;99088.03;;;1.15;61.07
55604;BME280;41468;48.838;9.330;2023-02-28T09:01:53;99094.94;;;1.26;61.04
55604;BME280;41468;48.838;9.330;2023-02-28T09:04:20;99086.72;;;1.37;60.60
55604;BME280;41468;48.838;9.330;2023-02-28T09:06:49;99092.22;;;1.26;59.89
55604;BME280;41468;48.838;9.330;2023-02-28T09:09:16;99087.34;;;1.28;60.19
55604;BME280;41468;48.838;9.330;2023-02-28T09:11:43;99084.06;;;1.31;59.98
55604;BME280;41468;48.838;9.330;2023-02-28T09:14:09;99098.69;;;1.25;60.05
55604;BME280;41468;48.838;9.330;2023-02-28T09:16:36;99089.47;;;1.31;58.93
55604;BME280;41468;48.838;9.330;2023-02-28T09:19:03;99089.72;;;1.11;59.53
55604;BME280;41468;48.838;9.330;2023-02-28T09:21:30;99099.16;;;1.32;59.65
55604;BME280;41468;48.838;9.330;2023-02-28T09:23:57;99091.03;;;1.38;59.55
55604;BME280;41468;48.838;9.330;2023-02-28T09:26:26;99094.19;;;1.40;59.04
55604;BME280;41468;48.838;9.330;2023-02-28T09:29:07;99092.06;;;1.61;58.78
55604;BME280;41468;48.838;9.330;2023-02-28T09:31:34;99101.16;;;1.46;58.21
55604;BME280;41468;48.838;9.330;2023-02-28T09:34:01;99101.47;;;1.15;58.78
55604;BME280;41468;48.838;9.330;2023-02-28T09:36:28;99095.41;;;1.28;59.12
55604;BME280;41468;48.838;9.330;2023-02-28T09:39:09;99100.25;;;1.50;58.59
55604;BME280;41468;48.838;9.330;2023-02-28T09:41:39;99101.81;;;1.57;58.17
55604;BME280;41468;48.838;9.330;2023-02-28T09:44:19;99101.09;;;1.51;58.33
55604;BME280;41468;48.838;9.330;2023-02-28T09:46:52;99109.63;;;1.77;58.12
55604;BME280;41468;48.838;9.330;2023-02-28T09:49:34;99111.56;;;1.71;57.36
55604;BME280;41468;48.838;9.330;2023-02-28T09:52:13;99113.91;;;1.59;57.28
55604;BME280;41468;48.838;9.330;2023-02-28T09:54:42;99108.53;;;1.59;57.99
55604;BME280;41468;48.838;9.330;2023-02-28T09:57:18;99107.59;;;1.45;57.92
55604;BME280;41468;48.838;9.330;2023-02-28T10:02:53;99112.72;;;1.46;57.92
55604;BME280;41468;48.838;9.330;2023-02-28T10:05:30;99113.31;;;1.62;57.77
55604;BME280;41468;48.838;9.330;2023-02-28T10:10:44;99110.56;;;1.67;57.76
55604;BME280;41468;48.838;9.330;2023-02-28T10:13:19;99116.59;;;1.59;57.66
55604;BME280;41468;48.838;9.330;2023-02-28T10:15:48;99118.88;;;1.90;57.74
55604;BME280;41468;48.838;9.330;2023-02-28T10:18:21;99112.78;;;2.03;57.19
55604;BME280;41468;48.838;9.330;2023-02-28T10:20:50;99107.28;;;2.27;57.05
55604;BME280;41468;48.838;9.330;2023-02-28T10:23:25;99104.06;;;2.44;56.16
55604;BME280;41468;48.838;9.330;2023-02-28T10:26:05;99109.88;;;2.51;55.75
55604;BME280;41468;48.838;9.330;2023-02-28T10:28:36;99122.78;;;2.35;55.89
55604;BME280;41468;48.838;9.330;2023-02-28T10:31:03;99129.72;;;2.04;56.40
55604;BME280;41468;48.838;9.330;2023-02-28T10:33:32;99129.88;;;2.31;56.33
55604;BME280;41468;48.838;9.330;2023-02-28T10:36:01;99120.56;;;2.24;55.81
55604;BME280;41468;48.838;9.330;2023-02-28T10:38:35;99115.94;;;2.43;55.91
55604;BME280;41468;48.838;9.330;2023-02-28T10:41:15;99121.16;;;2.20;55.98
55604;BME280;41468;48.838;9.330;2023-02-28T10:43:46;99121.84;;;2.45;55.82
55604;BME280;41468;48.838;9.330;2023-02-28T10:46:15;99119.50;;;2.38;55.29
55604;BME280;41468;48.838;9.330;2023-02-28T10:49:07;99125.56;;;2.30;55.42
55604;BME280;41468;48.838;9.330;2023-02-28T10:51:40;99119.91;;;2.32;55.29
55604;BME280;41468;48.838;9.330;2023-02-28T10:54:23;99114.72;;;2.68;55.34
55604;BME280;41468;48.838;9.330;2023-02-28T10:57:15;99109.19;;;3.06;54.15
55604;BME280;41468;48.838;9.330;2023-02-28T10:59:43;99108.66;;;2.90;53.70
55604;BME280;41468;48.838;9.330;2023-02-28T11:02:32;99109.41;;;3.09;53.91
55604;BME280;41468;48.838;9.330;2023-02-28T11:05:32;99107.03;;;3.49;53.16
55604;BME280;41468;48.838;9.330;2023-02-28T11:08:12;99098.31;;;4.39;51.01
55604;BME280;41468;48.838;9.330;2023-02-28T11:10:44;99094.19;;;4.95;50.36
55604;BME280;41468;48.838;9.330;2023-02-28T11:13:17;99102.19;;;4.78;49.02
55604;BME280;41468;48.838;9.330;2023-02-28T11:15:59;99095.06;;;4.82;49.32
55604;BME280;41468;48.838;9.330;2023-02-28T11:18:51;99086.91;;;5.04;49.75
55604;BME280;41468;48.838;9.330;2023-02-28T11:21:29;99088.66;;;5.09;48.26
55604;BME280;41468;48.838;9.330;2023-02-28T11:24:37;99083.72;;;5.02;49.08
55604;BME280;41468;48.838;9.330;2023-02-28T11:27:02;99083.91;;;5.72;48.69
55604;BME280;41468;48.838;9.330;2023-02-28T11:29:33;99089.19;;;5.77;47.13
55604;BME280;41468;48.838;9.330;2023-02-28T11:32:05;99077.88;;;5.75;47.89
55604;BME280;41468;48.838;9.330;2023-02-28T11:34:32;99081.91;;;6.38;46.81
55604;BME280;41468;48.838;9.330;2023-02-28T11:37:00;99071.78;;;6.74;45.75
55604;BME280;41468;48.838;9.330;2023-02-28T11:39:32;99077.31;;;6.95;45.32
55604;BME280;41468;48.838;9.330;2023-02-28T11:52:53;99071.50;;;7.14;44.63
55604;BME280;41468;48.838;9.330;2023-02-28T11:55:36;99066.06;;;7.43;44.08
55604;BME280;41468;48.838;9.330;2023-02-28T12:12:14;99072.88;;;7.28;43.61
55604;BME280;41468;48.838;9.330;2023-02-28T12:26:44;99049.97;;;7.38;44.06
55604;BME280;41468;48.838;9.330;2023-02-28T12:31:53;99050.50;;;7.32;42.86
55604;BME280;41468;48.838;9.330;2023-02-28T12:34:52;99047.84;;;6.76;43.88
55604;BME280;41468;48.838;9.330;2023-02-28T12:37:26;99060.56;;;7.31;43.31
55604;BME280;41468;48.838;9.330;2023-02-28T12:40:01;99050.84;;;7.51;42.97
55604;BME280;41468;48.838;9.330;2023-02-28T12:42:36;99043.47;;;7.81;43.52
55604;BME280;41468;48.838;9.330;2023-02-28T12:45:11;99041.53;;;7.61;41.98
55604;BME280;41468;48.838;9.330;2023-02-28T12:47:42;99044.31;;;8.15;42.54
55604;BME280;41468;48.838;9.330;2023-02-28T12:50:11;99041.59;;;7.73;42.37
55604;BME280;41468;48.838;9.330;2023-02-28T12:58:14;99026.91;;;7.74;42.15
55604;BME280;41468;48.838;9.330;2023-02-28T13:04:10;99021.69;;;8.23;41.59
55604;BME280;41468;48.838;9.330;2023-02-28T13:07:04;99024.25;;;7.36;42.35
55604;BME280;41468;48.838;9.330;2023-02-28T13:09:34;99038.06;;;7.51;41.92
55604;BME280;41468;48.838;9.330;2023-02-28T13:12:01;99019.88;;;7.43;42.47
55604;BME280;41468;48.838;9.330;2023-02-28T13:14:38;99018.16;;;7.39;42.25
55604;BME280;41468;48.838;9.330;2023-02-28T13:22:41;99018.72;;;6.85;43.10
55604;BME280;41468;48.838;9.330;2023-02-28T13:28:02;99017.66;;;7.16;43.20
55604;BME280;41468;48.838;9.330;2023-02-28T13:34:15;99018.97;;;7.39;43.15
55604;BME280;41468;48.838;9.330;2023-02-28T13:38:52;99013.50;;;6.80;43.33
55604;BME280;41468;48.838;9.330;2023-02-28T13:44:00;99008.69;;;6.85;43.52
55604;BME280;41468;48.838;9.330;2023-02-28T13:46:31;99013.97;;;6.82;43.16
55604;BME280;41468;48.838;9.330;2023-02-28T13:55:10;99008.56;;;7.12;43.79
55604;BME280;41468;48.838;9.330;2023-02-28T14:00:54;99012.59;;;7.05;43.70
55604;BME280;41468;48.838;9.330;2023-02-28T14:03:41;99013.06;;;7.07;43.36
55604;BME280;41468;48.838;9.330;2023-02-28T14:06:23;99011.50;;;7.27;43.23
55604;BME280;41468;48.838;9.330;2023-02-28T14:09:06;99006.00;;;7.15;43.18
55604;BME280;41468;48.838;9.330;2023-02-28T14:11:44;99008.47;;;6.52;44.22
55604;BME280;41468;48.838;9.330;2023-02-28T14:17:05;99009.41;;;7.03;44.74
55604;BME280;41468;48.838;9.330;2023-02-28T14:19:40;99005.94;;;7.24;44.65
55604;BME280;41468;48.838;9.330;2023-02-28T14:25:07;99022.59;;;7.14;44.43
55604;BME280;41468;48.838;9.330;2023-02-28T14:27:47;99009.00;;;6.84;43.92
55604;BME280;41468;48.838;9.330;2023-02-28T14:30:37;99003.22;;;6.94;44.33
55604;BME280;41468;48.838;9.330;2023-02-28T14:33:57;99015.97;;;7.02;44.79
55604;BME280;41468;48.838;9.330;2023-02-28T14:36:31;99013.38;;;7.06;44.14
55604;BME280;41468;48.838;9.330;2023-02-28T14:39:20;99013.72;;;7.04;44.56
55604;BME280;41468;48.838;9.330;2023-02-28T14:41:47;99013.59;;;6.92;44.89
55604;BME280;41468;48.838;9.330;2023-02-28T14:44:20;99022.31;;;7.06;44.73
55604;BME280;41468;48.838;9.330;2023-02-28T14:46:53;99013.53;;;7.10;44.66
55604;BME280;41468;48.838;9.330;2023-02-28T14:49:27;99017.81;;;6.81;44.20
55604;BME280;41468;48.838;9.330;2023-02-28T14:52:06;99018.72;;;6.94;44.50
55604;BME280;41468;48.838;9.330;2023-02-28T14:54:41;99020.38;;;6.69;45.29
55604;BME280;41468;48.838;9.330;2023-02-28T15:00:20;99024.91;;;6.47;45.03
55604;BME280;41468;48.838;9.330;2023-02-28T15:02:43;99014.72;;;6.44;46.31
55604;BME280;41468;48.838;9.330;2023-02-28T15:05:22;99022.97;;;6.65;46.12
55604;BME280;41468;48.838;9.330;2023-02-28T15:08:04;99021.00;;;6.74;45.85
55604;BME280;41468;48.838;9.330;2023-02-28T15:10:32;99018.47;;;6.78;45.15
55604;BME280;41468;48.838;9.330;2023-02-28T15:13:05;99028.91;;;6.50;45.69
55604;BME280;41468;48.838;9.330;2023-02-28T15:15:46;99029.72;;;6.41;45.34
55604;BME280;41468;48.838;9.330;2023-02-28T15:18:30;99023.66;;;6.36;45.69
55604;BME280;41468;48.838;9.330;2023-02-28T15:21:07;99028.31;;;6.09;45.74
55604;BME280;41468;48.838;9.330;2023-02-28T15:23:36;99029.28;;;6.13;46.15
55604;BME280;41468;48.838;9.330;2023-02-28T15:26:03;99027.38;;;6.14;46.34
55604;BME280;41468;48.838;9.330;2023-02-28T15:28:31;99032.59;;;5.93;46.69
55604;BME280;41468;48.838;9.330;2023-02-28T15:31:03;99038.34;;;5.91;47.04
55604;BME280;41468;48.838;9.330;2023-02-28T15:33:52;99035.63;;;5.83;46.82
55604;BME280;41468;48.838;9.330;2023-02-28T15:36:21;99042.97;;;5.91;47.06